createdAt,value
2022-10-19T00:01:07.058Z,58.67
2022-10-19T00:03:35.629Z,55.33
2022-10-19T00:06:18.160Z,57.83
2022-10-19T00:08:46.420Z,56.60
2022-10-19T00:11:13.922Z,59.40
2022-10-19T00:13:41.140Z,56.73
2022-10-19T00:16:14.597Z,50.90
2022-10-19T00:18:45.528Z,56.10
2022-10-19T00:21:18.984Z,56.10
2022-10-19T00:23:47.082Z,54.63
2022-10-19T00:26:15.160Z,51.07
2022-10-19T00:28:44.220Z,51.97
2022-10-19T00:31:17.323Z,49.03
2022-10-19T00:33:47.008Z,52.47
2022-10-19T00:36:35.451Z,55.90
2022-10-19T00:39:05.081Z,55.70
2022-10-19T00:41:33.978Z,52.87
2022-10-19T00:44:08.126Z,56.97
2022-10-19T00:46:39.040Z,54.43
2022-10-19T00:49:15.210Z,55.53
2022-10-19T00:51:47.122Z,53.43
2022-10-19T00:54:17.564Z,56.17
2022-10-19T00:56:48.383Z,58.97
2022-10-19T00:59:18.802Z,59.20
2022-10-19T01:01:46.947Z,58.00
2022-10-19T01:04:14.799Z,61.23
2022-10-19T01:06:42.832Z,63.83
2022-10-19T01:09:10.008Z,67.33
2022-10-19T01:11:45.892Z,70.73
2022-10-19T01:14:31.300Z,64.77
2022-10-19T01:17:28.475Z,61.50
2022-10-19T01:20:26.713Z,62.30
2022-10-19T01:23:24.037Z,61.97
2022-10-19T01:26:06.078Z,60.70
2022-10-19T01:29:10.529Z,63.47
2022-10-19T01:32:19.937Z,59.50
2022-10-19T01:35:06.501Z,58.83
2022-10-19T01:37:56.035Z,56.10
2022-10-19T01:40:23.073Z,60.13
2022-10-19T01:43:07.825Z,59.60
2022-10-19T01:45:45.498Z,57.07
2022-10-19T01:48:21.496Z,58.03
2022-10-19T01:51:05.037Z,57.43
2022-10-19T01:53:39.480Z,53.20
2022-10-19T01:56:08.579Z,69.40
2022-10-19T01:58:38.827Z,63.00
2022-10-19T02:01:09.214Z,60.83
2022-10-19T02:03:38.109Z,58.40
2022-10-19T02:06:08.688Z,59.20
2022-10-19T02:08:43.983Z,60.40
2022-10-19T02:11:11.193Z,57.40
2022-10-19T02:13:40.049Z,59.93
2022-10-19T02:16:11.090Z,62.37
2022-10-19T02:18:42.592Z,56.60
2022-10-19T02:21:10.599Z,59.20
2022-10-19T02:23:37.640Z,57.93
2022-10-19T02:26:05.063Z,60.83
2022-10-19T02:28:32.448Z,68.27
2022-10-19T02:31:00.277Z,64.80
2022-10-19T02:33:28.875Z,65.50
2022-10-19T02:35:57.092Z,62.43
2022-10-19T02:38:25.025Z,68.70
2022-10-19T02:41:06.521Z,73.50
2022-10-19T02:43:37.652Z,68.47
2022-10-19T02:46:27.834Z,72.80
2022-10-19T02:48:57.295Z,73.33
2022-10-19T02:51:36.417Z,72.37
2022-10-19T02:54:05.603Z,73.20
2022-10-19T02:56:34.188Z,74.23
2022-10-19T02:59:02.193Z,78.00
2022-10-19T03:01:29.180Z,78.63
2022-10-19T03:03:56.195Z,70.63
2022-10-19T03:06:23.190Z,75.93
2022-10-19T03:08:50.779Z,68.47
2022-10-19T03:11:17.723Z,65.17
2022-10-19T03:13:44.782Z,70.70
2022-10-19T03:16:13.408Z,70.23
2022-10-19T03:18:40.881Z,74.03
2022-10-19T03:21:13.097Z,73.03
2022-10-19T03:23:40.980Z,65.73
2022-10-19T03:26:11.509Z,66.90
2022-10-19T03:28:39.532Z,66.57
2022-10-19T03:31:06.700Z,66.43
2022-10-19T03:33:33.698Z,71.33
2022-10-19T03:36:37.212Z,73.57
2022-10-19T03:39:09.061Z,74.57
2022-10-19T03:41:37.468Z,68.17
2022-10-19T03:44:06.210Z,64.53
2022-10-19T03:46:34.109Z,67.37
2022-10-19T03:49:01.194Z,69.03
2022-10-19T03:51:29.832Z,66.93
2022-10-19T03:54:06.684Z,67.83
2022-10-19T03:56:35.006Z,68.87
2022-10-19T03:59:04.144Z,66.73
2022-10-19T04:01:36.815Z,71.20
2022-10-19T04:04:07.013Z,84.33
2022-10-19T04:06:36.197Z,76.20
2022-10-19T04:09:05.265Z,70.40
2022-10-19T04:11:33.881Z,68.67
2022-10-19T04:14:01.646Z,69.07
2022-10-19T04:16:30.595Z,69.13
2022-10-19T04:18:58.346Z,73.67
2022-10-19T04:21:25.319Z,76.70
2022-10-19T04:23:54.096Z,77.97
2022-10-19T04:26:21.114Z,82.13
2022-10-19T04:28:48.558Z,84.67
2022-10-19T04:31:15.651Z,84.13
2022-10-19T04:33:42.796Z,79.67
2022-10-19T04:36:11.910Z,77.63
2022-10-19T04:38:39.492Z,76.97
2022-10-19T04:41:13.238Z,68.40
2022-10-19T04:43:40.517Z,73.53
2022-10-19T04:46:10.680Z,84.70
2022-10-19T04:48:38.925Z,72.53
2022-10-19T04:51:07.035Z,74.97
2022-10-19T04:53:34.828Z,78.00
2022-10-19T04:56:05.945Z,72.10
2022-10-19T04:58:32.928Z,73.40
2022-10-19T05:01:00.038Z,83.17
2022-10-19T05:03:27.084Z,84.63
2022-10-19T05:05:54.045Z,83.20
2022-10-19T05:08:21.016Z,76.40
2022-10-19T05:10:47.970Z,104.20
2022-10-19T05:13:15.062Z,72.17
2022-10-19T05:15:42.227Z,77.83
2022-10-19T05:18:09.268Z,80.00
2022-10-19T05:20:36.251Z,78.87
2022-10-19T05:23:06.373Z,86.77
2022-10-19T05:25:34.399Z,71.67
2022-10-19T05:28:01.348Z,90.30
2022-10-19T05:30:28.310Z,77.17
2022-10-19T05:32:55.263Z,70.93
2022-10-19T05:35:22.684Z,71.53
2022-10-19T05:37:55.267Z,64.00
2022-10-19T05:40:22.223Z,75.73
2022-10-19T05:42:49.218Z,67.97
2022-10-19T05:45:16.222Z,65.03
2022-10-19T05:47:43.217Z,62.07
2022-10-19T05:50:10.188Z,66.80
2022-10-19T05:52:37.158Z,71.77
2022-10-19T05:55:04.534Z,72.47
2022-10-19T05:57:33.180Z,68.83
2022-10-19T06:00:00.490Z,55.23
2022-10-19T06:02:27.697Z,60.43
2022-10-19T06:04:54.796Z,71.63
2022-10-19T06:07:21.779Z,65.67
2022-10-19T06:09:48.759Z,65.97
2022-10-19T06:12:16.394Z,59.63
2022-10-19T06:14:43.596Z,68.93
2022-10-19T06:17:10.865Z,59.30
2022-10-19T06:19:38.003Z,69.23
2022-10-19T06:22:05.018Z,53.57
2022-10-19T06:24:32.005Z,54.53
2022-10-19T06:26:59.185Z,52.37
2022-10-19T06:29:26.373Z,53.23
2022-10-19T06:31:54.563Z,53.70
2022-10-19T06:34:21.645Z,49.93
2022-10-19T06:36:48.667Z,49.33
2022-10-19T06:39:15.681Z,47.77
2022-10-19T06:41:42.620Z,47.60
2022-10-19T06:44:19.196Z,52.70
2022-10-19T06:46:46.193Z,50.33
2022-10-19T06:49:14.217Z,49.07
2022-10-19T06:51:41.215Z,60.60
2022-10-19T06:54:09.145Z,56.60
2022-10-19T06:56:36.521Z,64.17
2022-10-19T06:59:03.842Z,56.50
2022-10-19T07:01:30.939Z,63.00
2022-10-19T07:03:57.970Z,55.70
2022-10-19T07:06:27.888Z,61.90
2022-10-19T07:08:54.900Z,59.30
2022-10-19T07:11:22.675Z,63.17
2022-10-19T07:13:50.440Z,63.30
2022-10-19T07:16:21.120Z,67.60
2022-10-19T07:18:50.233Z,61.93
2022-10-19T07:21:18.223Z,66.73
2022-10-19T07:23:47.418Z,73.60
2022-10-19T07:26:21.367Z,67.53
2022-10-19T07:28:49.396Z,73.53
2022-10-19T07:31:20.952Z,71.33
2022-10-19T07:33:53.496Z,67.27
2022-10-19T07:36:20.847Z,63.57
2022-10-19T07:38:47.815Z,57.37
2022-10-19T07:41:17.371Z,59.77
2022-10-19T07:43:45.571Z,56.57
2022-10-19T07:46:15.157Z,50.93
2022-10-19T07:48:42.924Z,52.07
2022-10-19T07:51:11.775Z,49.10
2022-10-19T07:53:39.625Z,49.80
2022-10-19T07:56:09.801Z,51.70
2022-10-19T07:58:37.762Z,51.97
2022-10-19T08:01:16.382Z,52.87
2022-10-19T08:04:31.803Z,50.67
2022-10-19T08:06:31.659Z,52.70
2022-10-19T08:08:58.799Z,52.47
2022-10-19T08:11:32.613Z,54.33
2022-10-19T08:14:00.060Z,52.47
2022-10-19T08:16:40.504Z,48.40
2022-10-19T08:19:16.623Z,55.50
2022-10-19T08:21:45.509Z,51.77
2022-10-19T08:24:14.856Z,58.07
2022-10-19T08:26:42.438Z,49.63
2022-10-19T08:29:17.789Z,50.63
2022-10-19T08:31:46.603Z,47.93
2022-10-19T08:34:14.290Z,47.70
2022-10-19T08:39:14.504Z,45.77
2022-10-19T08:44:35.038Z,47.90
2022-10-19T08:47:19.756Z,53.23
2022-10-19T08:49:49.595Z,52.33
2022-10-19T08:52:24.214Z,53.53
2022-10-19T08:54:53.538Z,59.47
2022-10-19T08:57:35.893Z,59.40
2022-10-19T09:00:07.936Z,60.40
2022-10-19T09:02:55.867Z,57.13
2022-10-19T09:05:48.158Z,49.50
2022-10-19T09:08:17.846Z,56.17
2022-10-19T09:10:49.175Z,61.53
2022-10-19T09:13:41.700Z,61.67
2022-10-19T09:16:21.443Z,57.87
2022-10-19T09:18:49.461Z,55.10
2022-10-19T09:21:30.909Z,60.90
2022-10-19T09:24:07.285Z,57.97
2022-10-19T09:26:42.903Z,60.80
2022-10-19T09:29:34.717Z,62.80
2022-10-19T09:32:05.345Z,60.93
2022-10-19T09:34:35.827Z,62.33
2022-10-19T09:37:03.045Z,60.10
2022-10-19T09:39:31.079Z,65.30
2022-10-19T09:42:05.128Z,78.30
2022-10-19T09:44:32.879Z,64.03
2022-10-19T09:47:30.811Z,69.60
2022-10-19T09:50:21.314Z,60.30
2022-10-19T09:53:02.789Z,65.60
2022-10-19T09:55:44.163Z,61.30
2022-10-19T09:58:14.127Z,64.07
2022-10-19T10:00:55.717Z,75.33
2022-10-19T10:03:31.334Z,63.03
2022-10-19T10:06:14.835Z,64.27
2022-10-19T10:08:58.047Z,64.83
2022-10-19T10:11:32.079Z,58.97
2022-10-19T10:14:07.532Z,63.53
2022-10-19T10:16:37.091Z,65.70
2022-10-19T10:19:07.237Z,62.20
2022-10-19T10:21:55.794Z,67.00
2022-10-19T10:24:25.374Z,66.93
2022-10-19T10:26:54.097Z,64.33
2022-10-19T10:29:36.282Z,67.57
2022-10-19T10:32:16.385Z,63.33
2022-10-19T10:34:58.563Z,68.77
2022-10-19T10:37:44.679Z,72.93
2022-10-19T10:40:23.790Z,72.83
2022-10-19T10:42:53.600Z,72.53
2022-10-19T10:45:48.985Z,75.37
2022-10-19T10:48:54.303Z,65.13
2022-10-19T10:51:27.067Z,71.77
2022-10-19T10:54:16.023Z,65.80
2022-10-19T10:56:45.083Z,69.00
2022-10-19T10:59:17.803Z,73.27
2022-10-19T11:02:02.088Z,71.87
2022-10-19T11:04:35.494Z,67.77
2022-10-19T11:07:17.190Z,72.67
2022-10-19T11:09:51.662Z,69.93
2022-10-19T11:12:29.523Z,63.47
2022-10-19T11:15:09.097Z,65.27
2022-10-19T11:17:39.980Z,72.60
2022-10-19T11:20:14.901Z,64.97
2022-10-19T11:22:57.934Z,66.63
2022-10-19T11:25:43.732Z,66.13
2022-10-19T11:28:31.757Z,70.10
2022-10-19T11:31:47.399Z,68.57
2022-10-19T11:34:46.373Z,63.03
2022-10-19T11:37:19.457Z,65.80
2022-10-19T11:39:55.088Z,64.23
2022-10-19T11:42:55.247Z,68.47
2022-10-19T11:45:36.980Z,58.30
2022-10-19T11:48:09.842Z,64.97
2022-10-19T11:50:54.395Z,54.37
2022-10-19T11:53:34.540Z,56.97
2022-10-19T11:56:35.004Z,55.57
2022-10-19T11:59:17.916Z,55.77
2022-10-19T12:01:51.610Z,56.33
2022-10-19T12:04:37.529Z,60.10
2022-10-19T12:07:40.335Z,55.07
2022-10-19T12:10:46.015Z,53.43
2022-10-19T12:13:16.937Z,48.37
2022-10-19T12:15:53.924Z,47.70
2022-10-19T12:18:44.361Z,57.23
2022-10-19T12:21:37.593Z,52.10
2022-10-19T12:24:12.690Z,55.73
2022-10-19T12:26:41.354Z,49.57
2022-10-19T12:29:16.984Z,58.90
2022-10-19T12:31:44.702Z,50.20
2022-10-19T12:34:37.752Z,47.90
2022-10-19T12:37:22.860Z,51.47
2022-10-19T12:39:57.215Z,51.77
2022-10-19T12:42:33.193Z,54.00
2022-10-19T12:45:25.366Z,50.93
2022-10-19T12:48:13.178Z,45.47
2022-10-19T12:50:50.214Z,48.37
2022-10-19T12:53:38.204Z,37.77
2022-10-19T12:56:25.590Z,43.40
2022-10-19T12:59:01.602Z,45.77
2022-10-19T13:01:42.187Z,40.37
2022-10-19T13:04:09.328Z,44.77
2022-10-19T13:07:01.952Z,48.47
2022-10-19T13:09:34.198Z,49.53
2022-10-19T13:12:21.283Z,48.80
2022-10-19T13:14:56.568Z,51.30
2022-10-19T13:17:43.763Z,43.97
2022-10-19T13:20:13.817Z,40.60
2022-10-19T13:22:46.200Z,43.43
2022-10-19T13:25:23.834Z,45.20
2022-10-19T13:28:02.184Z,41.63
2022-10-19T13:30:38.786Z,45.23
2022-10-19T13:33:31.414Z,39.13
2022-10-19T13:35:58.764Z,51.17
2022-10-19T13:38:29.838Z,42.90
2022-10-19T13:41:18.232Z,43.60
2022-10-19T13:44:05.309Z,45.43
2022-10-19T13:46:32.250Z,44.83
2022-10-19T13:49:05.598Z,42.30
2022-10-19T13:52:00.196Z,48.77
2022-10-19T13:55:08.322Z,44.07
2022-10-19T13:58:03.104Z,48.83
2022-10-19T14:00:46.893Z,42.30
2022-10-19T14:03:23.837Z,53.53
2022-10-19T14:06:27.558Z,45.27
2022-10-19T14:09:18.812Z,49.83
2022-10-19T14:11:49.916Z,38.73
2022-10-19T14:14:25.017Z,37.67
2022-10-19T14:17:04.013Z,41.73
2022-10-19T14:19:41.151Z,43.57
2022-10-19T14:22:36.249Z,39.93
2022-10-19T14:25:15.175Z,34.67
2022-10-19T14:27:42.444Z,34.80
2022-10-19T14:30:27.496Z,41.97
2022-10-19T14:32:59.411Z,42.37
2022-10-19T14:35:35.582Z,39.63
2022-10-19T14:38:08.658Z,35.40
2022-10-19T14:40:40.252Z,38.03
2022-10-19T14:43:25.984Z,34.37
2022-10-19T14:46:08.217Z,36.73
2022-10-19T14:48:37.716Z,45.63
2022-10-19T14:51:21.780Z,38.13
2022-10-19T14:54:00.532Z,37.17
2022-10-19T14:56:46.290Z,39.90
2022-10-19T14:59:47.152Z,39.90
2022-10-19T15:02:38.661Z,38.40
2022-10-19T15:05:14.533Z,35.97
2022-10-19T15:07:43.233Z,40.20
2022-10-19T15:10:23.879Z,33.80
2022-10-19T15:12:52.684Z,39.53
2022-10-19T15:15:28.782Z,41.30
2022-10-19T15:18:01.831Z,41.03
2022-10-19T15:20:43.936Z,38.90
2022-10-19T15:23:44.444Z,33.10
2022-10-19T15:26:26.458Z,35.97
2022-10-19T15:28:55.202Z,36.77
2022-10-19T15:31:26.737Z,35.07
2022-10-19T15:34:01.817Z,42.33
2022-10-19T15:36:30.739Z,30.77
2022-10-19T15:39:32.996Z,36.10
2022-10-19T15:42:42.044Z,34.90
2022-10-19T15:45:28.032Z,33.77
2022-10-19T15:48:10.337Z,30.97
2022-10-19T15:50:48.347Z,35.13
2022-10-19T15:53:16.317Z,33.53
2022-10-19T15:55:43.249Z,30.27
2022-10-19T15:58:14.293Z,31.00
2022-10-19T16:00:42.012Z,35.77
2022-10-19T16:03:09.276Z,29.77
2022-10-19T16:05:36.744Z,33.00
2022-10-19T16:08:07.814Z,34.10
2022-10-19T16:10:37.151Z,34.50
2022-10-19T16:13:04.130Z,29.93
2022-10-19T16:15:31.101Z,33.83
2022-10-19T16:18:01.490Z,47.03
2022-10-19T16:20:30.231Z,50.60
2022-10-19T16:22:58.161Z,37.60
2022-10-19T16:25:25.454Z,32.70
2022-10-19T16:27:52.482Z,30.53
2022-10-19T16:30:21.861Z,36.47
2022-10-19T16:32:49.768Z,36.53
2022-10-19T16:35:16.830Z,35.07
2022-10-19T16:37:43.816Z,34.73
2022-10-19T16:40:11.061Z,34.70
2022-10-19T16:42:38.481Z,33.43
2022-10-19T16:45:05.982Z,30.57
2022-10-19T16:47:32.963Z,34.83
2022-10-19T16:50:01.744Z,32.67
2022-10-19T16:52:31.439Z,35.53
2022-10-19T16:54:59.021Z,37.03
2022-10-19T16:57:26.046Z,35.80
2022-10-19T17:02:26.200Z,34.30
2022-10-19T17:04:53.183Z,32.23
2022-10-19T17:07:20.244Z,32.80
2022-10-19T17:09:49.722Z,31.60
2022-10-19T17:12:19.351Z,35.27
2022-10-19T17:14:46.325Z,41.50
2022-10-19T17:17:13.416Z,39.50
2022-10-19T17:19:40.531Z,44.90
2022-10-19T17:22:07.957Z,33.20
2022-10-19T17:24:34.972Z,41.63
2022-10-19T17:27:05.398Z,45.43
2022-10-19T17:29:32.506Z,37.83
2022-10-19T17:31:59.790Z,35.53
2022-10-19T17:34:27.463Z,39.43
2022-10-19T17:36:54.898Z,42.70
2022-10-19T17:39:29.050Z,44.43
2022-10-19T17:42:01.429Z,40.80
2022-10-19T17:44:30.641Z,38.53
2022-10-19T17:46:57.947Z,26.53
2022-10-19T17:49:24.945Z,34.60
2022-10-19T17:51:53.300Z,32.77
2022-10-19T17:54:20.632Z,34.27
2022-10-19T17:56:48.180Z,39.67
2022-10-19T17:59:15.230Z,47.33
2022-10-19T18:01:42.309Z,36.50
2022-10-19T18:04:09.351Z,33.47
2022-10-19T18:06:38.106Z,36.97
2022-10-19T18:09:08.183Z,37.93
2022-10-19T18:11:39.587Z,41.93
2022-10-19T18:14:09.208Z,44.93
2022-10-19T18:16:40.599Z,40.97
2022-10-19T18:19:08.841Z,40.37
2022-10-19T18:21:41.381Z,42.73
2022-10-19T18:24:15.106Z,39.10
2022-10-19T18:26:43.032Z,41.40
2022-10-19T18:29:13.536Z,46.07
2022-10-19T18:31:41.293Z,41.20
2022-10-19T18:34:12.371Z,40.30
2022-10-19T18:36:39.484Z,48.80
2022-10-19T18:39:07.844Z,53.53
2022-10-19T18:41:34.909Z,49.90
2022-10-19T18:44:05.111Z,43.77
2022-10-19T18:46:34.404Z,46.93
2022-10-19T18:49:01.846Z,51.47
2022-10-19T18:51:29.175Z,43.17
2022-10-19T18:53:56.206Z,41.60
2022-10-19T18:56:23.905Z,43.20
2022-10-19T18:58:51.384Z,45.30
2022-10-19T19:01:24.240Z,45.37
2022-10-19T19:03:53.335Z,51.70
2022-10-19T19:06:23.496Z,46.87
2022-10-19T19:08:51.202Z,44.80
2022-10-19T19:11:19.464Z,49.30
2022-10-19T19:13:58.111Z,50.53
2022-10-19T19:16:26.032Z,52.57
2022-10-19T19:18:53.862Z,53.57
2022-10-19T19:21:24.177Z,57.93
2022-10-19T19:23:52.999Z,58.13
2022-10-19T19:26:24.650Z,56.30
2022-10-19T19:28:52.014Z,55.20
2022-10-19T19:31:19.498Z,62.37
2022-10-19T19:33:48.270Z,54.07
2022-10-19T19:36:17.859Z,56.03
2022-10-19T19:38:45.392Z,58.50
2022-10-19T19:41:14.356Z,58.60
2022-10-19T19:43:42.556Z,59.93
2022-10-19T19:46:13.513Z,56.63
2022-10-19T19:48:42.451Z,56.13
2022-10-19T19:51:12.118Z,56.73
2022-10-19T19:53:39.372Z,61.03
2022-10-19T19:56:08.183Z,55.27
2022-10-19T19:58:35.578Z,63.27
2022-10-19T20:01:29.284Z,61.60
2022-10-19T20:03:59.182Z,63.50
2022-10-19T20:06:26.427Z,58.53
2022-10-19T20:08:55.278Z,58.73
2022-10-19T20:11:23.889Z,62.03
2022-10-19T20:13:51.410Z,62.53
2022-10-19T20:16:28.170Z,56.53
2022-10-19T20:19:05.329Z,60.40
2022-10-19T20:21:33.654Z,62.00
2022-10-19T20:24:01.107Z,57.40
2022-10-19T20:26:28.798Z,71.33
2022-10-19T20:28:56.292Z,67.77
2022-10-19T20:31:24.160Z,59.60
2022-10-19T20:33:51.271Z,58.17
2022-10-19T20:36:24.083Z,66.83
2022-10-19T20:38:56.726Z,59.07
2022-10-19T20:41:25.984Z,59.07
2022-10-19T20:43:56.497Z,65.47
2022-10-19T20:46:29.402Z,65.87
2022-10-19T20:49:00.280Z,57.37
2022-10-19T20:51:32.950Z,70.73
2022-10-19T20:54:01.994Z,67.10
2022-10-19T20:56:32.178Z,71.47
2022-10-19T20:59:07.642Z,70.23
2022-10-19T21:01:37.065Z,72.40
2022-10-19T21:04:06.247Z,72.70
2022-10-19T21:06:37.543Z,72.53
2022-10-19T21:09:04.895Z,74.00
2022-10-19T21:11:34.766Z,74.57
2022-10-19T21:14:04.439Z,72.07
2022-10-19T21:16:34.044Z,81.60
2022-10-19T21:19:22.164Z,70.53
2022-10-19T21:21:52.829Z,70.53
2022-10-19T21:24:29.572Z,72.10
2022-10-19T21:26:56.499Z,77.07
2022-10-19T21:29:23.484Z,77.90
2022-10-19T21:31:52.953Z,70.23
2022-10-19T21:34:25.245Z,65.27
2022-10-19T21:36:52.626Z,68.07
2022-10-19T21:39:19.904Z,67.87
2022-10-19T21:41:47.821Z,77.07
2022-10-19T21:44:16.451Z,67.17
2022-10-19T21:46:44.505Z,68.87
2022-10-19T21:49:12.395Z,63.80
2022-10-19T21:51:44.062Z,66.40
2022-10-19T21:54:16.934Z,66.97
2022-10-19T21:56:44.981Z,73.37
2022-10-19T21:59:12.999Z,72.13
2022-10-19T22:01:41.595Z,82.93
2022-10-19T22:04:12.821Z,77.77
2022-10-19T22:06:40.676Z,69.43
2022-10-19T22:09:09.941Z,76.13
2022-10-19T22:11:37.055Z,72.47
2022-10-19T22:14:04.673Z,66.40
2022-10-19T22:16:35.127Z,66.13
2022-10-19T22:19:02.624Z,72.90
2022-10-19T22:21:31.989Z,87.30
2022-10-19T22:24:04.407Z,80.53
2022-10-19T22:26:38.558Z,72.67
2022-10-19T22:29:06.959Z,68.77
2022-10-19T22:31:34.842Z,68.07
2022-10-19T22:34:04.582Z,72.77
2022-10-19T22:36:31.823Z,72.60
2022-10-19T22:38:58.839Z,67.87
2022-10-19T22:41:28.617Z,75.80
2022-10-19T22:43:55.627Z,74.27
2022-10-19T22:46:22.579Z,77.47
2022-10-19T22:48:49.549Z,83.03
2022-10-19T22:51:16.490Z,84.77
2022-10-19T22:53:43.479Z,91.63
2022-10-19T22:56:13.747Z,84.10
2022-10-19T22:58:40.792Z,84.50
2022-10-19T23:01:10.705Z,82.17
2022-10-19T23:03:40.294Z,76.00
2022-10-19T23:06:12.125Z,74.70
2022-10-19T23:08:39.331Z,76.00
2022-10-19T23:11:06.444Z,72.97
2022-10-19T23:13:33.417Z,72.10
2022-10-19T23:16:00.553Z,77.53
2022-10-19T23:18:31.247Z,70.13
2022-10-19T23:21:01.297Z,76.33
2022-10-19T23:23:29.693Z,81.03
2022-10-19T23:26:02.379Z,77.57
2022-10-19T23:28:30.289Z,81.83
2022-10-19T23:30:59.375Z,83.97
2022-10-19T23:33:26.486Z,79.50
2022-10-19T23:35:53.476Z,87.80
2022-10-19T23:38:20.422Z,85.80
2022-10-19T23:40:47.437Z,86.47
2022-10-19T23:43:14.416Z,88.47
2022-10-19T23:45:41.434Z,85.27
2022-10-19T23:48:08.389Z,90.27
2022-10-19T23:50:35.342Z,81.90
2022-10-19T23:53:02.405Z,75.87
2022-10-19T23:55:29.396Z,70.20
2022-10-19T23:57:56.361Z,66.50
